Time;durP1;ratioP1;P1;durP2;ratioP2;P2;SDS_P1;SDS_P2;PMS_P1;PMS_P2;Temp;Humidity;BMP_temperature;BMP_pressure;BME280_temperature;BME280_humidity;BME280_pressure;Samples;Min_cycle;Max_cycle;Signal;HPM_P1;HPM_P2
2023/08/30 00:01:48;;;;;;;2.87;2.73;;;23.50;46.20;;;;;;5020917;28;20239;-67
2023/08/30 00:04:14;;;;;;;2.83;2.73;;;23.50;46.20;;;;;;5019567;28;20222;-64
2023/08/30 00:06:39;;;;;;;3.10;3.00;;;23.50;46.20;;;;;;5015526;28;20232;-66
2023/08/30 00:09:05;;;;;;;3.00;2.60;;;23.50;46.30;;;;;;5021150;28;20218;-69
2023/08/30 00:11:32;;;;;;;2.57;2.47;;;23.50;46.20;;;;;;5015202;28;20273;-67
2023/08/30 00:14:07;;;;;;;3.27;3.07;;;23.50;46.20;;;;;;5018459;28;20714;-65
2023/08/30 00:16:34;;;;;;;3.37;3.17;;;23.50;46.20;;;;;;5019883;28;20744;-65
2023/08/30 00:19:00;;;;;;;2.60;2.50;;;23.50;46.20;;;;;;5018295;28;20942;-65
2023/08/30 00:21:27;;;;;;;3.30;3.10;;;23.50;46.30;;;;;;5017982;28;20470;-65
2023/08/30 00:23:52;;;;;;;2.63;2.53;;;23.50;46.20;;;;;;5025498;28;20600;-65
2023/08/30 00:26:18;;;;;;;2.70;2.60;;;23.40;46.10;;;;;;5021366;28;20496;-66
2023/08/30 00:28:44;;;;;;;2.60;2.50;;;23.50;46.20;;;;;;5015133;28;20232;-64
2023/08/30 00:31:09;;;;;;;3.63;3.43;;;23.50;46.20;;;;;;5017547;28;20214;-66
2023/08/30 00:33:35;;;;;;;2.80;2.70;;;23.40;46.10;;;;;;5019703;28;20310;-69
2023/08/30 00:36:00;;;;;;;2.97;2.87;;;23.40;46.30;;;;;;5032998;28;20257;-65
2023/08/30 00:38:27;;;;;;;2.70;2.60;;;23.40;46.20;;;;;;5020070;28;20862;-65
2023/08/30 00:40:53;;;;;;;3.20;3.10;;;23.40;46.20;;;;;;5019157;28;20230;-65
2023/08/30 00:43:20;;;;;;;3.13;2.93;;;23.40;46.20;;;;;;5019438;28;20466;-66
2023/08/30 00:45:47;;;;;;;3.13;2.93;;;23.40;46.30;;;;;;5016065;28;20253;-64
2023/08/30 00:48:14;;;;;;;2.97;2.83;;;23.40;46.20;;;;;;5020041;28;20450;-64
2023/08/30 00:50:41;;;;;;;2.90;2.70;;;23.40;46.20;;;;;;5015555;28;20452;-66
2023/08/30 00:53:07;;;;;;;2.87;2.70;;;23.40;46.20;;;;;;5018525;28;21383;-64
2023/08/30 00:55:34;;;;;;;2.53;2.43;;;23.50;46.30;;;;;;5018969;28;20452;-69
2023/08/30 00:58:01;;;;;;;3.47;3.17;;;23.50;46.30;;;;;;5019220;28;20849;-69
2023/08/30 01:00:28;;;;;;;3.13;2.83;;;23.50;46.30;;;;;;5014008;28;20587;-69
2023/08/30 01:02:55;;;;;;;2.60;2.50;;;23.40;46.20;;;;;;5020150;28;20562;-66
2023/08/30 01:05:20;;;;;;;2.87;2.77;;;23.40;46.10;;;;;;5020529;28;21427;-69
2023/08/30 01:07:46;;;;;;;3.10;2.90;;;23.40;46.10;;;;;;5015082;28;20483;-64
2023/08/30 01:10:12;;;;;;;3.00;2.90;;;23.40;46.20;;;;;;5018058;28;20233;-69
2023/08/30 01:12:47;;;;;;;3.20;3.10;;;23.40;46.20;;;;;;5021279;28;20222;-64
2023/08/30 01:15:18;;;;;;;3.60;3.40;;;23.40;46.10;;;;;;5015112;28;20275;-67
2023/08/30 01:17:44;;;;;;;3.07;2.97;;;23.40;46.20;;;;;;5018615;28;20456;-65
2023/08/30 01:20:18;;;;;;;2.60;2.50;;;23.40;46.20;;;;;;5018336;28;20530;-69
2023/08/30 01:23:06;;;;;;;3.20;2.90;;;23.40;46.10;;;;;;5019670;28;20459;-67
2023/08/30 01:25:47;;;;;;;2.93;2.83;;;23.40;46.10;;;;;;5019109;28;20478;-65
2023/08/30 01:28:16;;;;;;;2.90;2.80;;;23.40;46.10;;;;;;5017244;28;20444;-68
2023/08/30 01:30:42;;;;;;;3.17;3.00;;;23.40;46.10;;;;;;5015656;28;21229;-68
2023/08/30 01:33:09;;;;;;;2.93;2.77;;;23.40;46.20;;;;;;5017786;28;21004;-64
2023/08/30 01:35:37;;;;;;;2.60;2.40;;;23.40;46.10;;;;;;5021734;28;20971;-67
2023/08/30 01:38:04;;;;;;;2.83;2.73;;;23.40;46.20;;;;;;5024374;28;20507;-65
2023/08/30 01:40:35;;;;;;;2.73;2.63;;;23.40;46.10;;;;;;5023280;28;20605;-65
2023/08/30 01:43:02;;;;;;;2.63;2.53;;;23.40;46.50;;;;;;5023648;28;22008;-65
2023/08/30 01:45:29;;;;;;;2.97;2.87;;;23.40;46.10;;;;;;5019949;28;21294;-65
2023/08/30 01:47:57;;;;;;;3.40;3.30;;;23.40;46.10;;;;;;5023231;28;20542;-68
2023/08/30 01:50:23;;;;;;;2.60;2.50;;;23.40;46.10;;;;;;5023859;28;20444;-65
2023/08/30 01:52:50;;;;;;;2.80;2.70;;;23.40;46.10;;;;;;5022924;28;20494;-67
2023/08/30 01:55:17;;;;;;;3.00;2.80;;;23.40;46.10;;;;;;5017871;28;20455;-68
2023/08/30 01:57:43;;;;;;;2.67;2.57;;;23.40;46.00;;;;;;5025482;28;20892;-64
2023/08/30 02:00:09;;;;;;;2.70;2.60;;;23.40;46.00;;;;;;5023075;28;20476;-65
2023/08/30 02:02:35;;;;;;;3.80;2.80;;;23.40;46.00;;;;;;5020665;28;20228;-65
2023/08/30 02:05:01;;;;;;;2.90;2.80;;;23.40;46.00;;;;;;5023833;28;20307;-64
2023/08/30 02:08:09;;;;;;;2.77;2.67;;;23.40;46.00;;;;;;5029882;28;20451;-67
2023/08/30 02:10:40;;;;;;;3.20;3.00;;;23.40;46.00;;;;;;5025531;28;20459;-65
2023/08/30 02:13:06;;;;;;;3.03;2.83;;;23.40;46.80;;;;;;5020851;28;20463;-66
2023/08/30 02:15:35;;;;;;;2.63;2.53;;;23.40;46.00;;;;;;5019588;28;21097;-65
2023/08/30 02:18:03;;;;;;;2.80;2.70;;;23.40;46.00;;;;;;5022190;28;20237;-65
2023/08/30 02:20:28;;;;;;;2.97;2.77;;;23.40;46.00;;;;;;5016401;28;20467;-65
2023/08/30 02:22:59;;;;;;;2.80;2.70;;;23.40;46.00;;;;;;5026747;28;20456;-66
2023/08/30 02:25:24;;;;;;;2.37;2.27;;;23.40;46.00;;;;;;5018412;28;20222;-66
2023/08/30 02:27:50;;;;;;;2.70;2.60;;;23.40;46.00;;;;;;5020411;28;20459;-64
2023/08/30 02:30:15;;;;;;;2.40;2.30;;;23.40;46.00;;;;;;5021947;28;20230;-64
2023/08/30 02:32:41;;;;;;;2.83;2.73;;;23.40;45.90;;;;;;5019800;28;21147;-66
2023/08/30 02:35:06;;;;;;;2.77;2.67;;;23.40;45.90;;;;;;5023172;28;20222;-65
2023/08/30 02:37:32;;;;;;;2.90;2.70;;;23.40;45.90;;;;;;5022953;28;20218;-67
2023/08/30 02:39:58;;;;;;;2.47;2.37;;;23.40;45.90;;;;;;5020242;28;20233;-65
2023/08/30 02:42:24;;;;;;;2.40;2.20;;;23.40;46.00;;;;;;5018969;28;20218;-65
2023/08/30 02:44:50;;;;;;;3.13;3.03;;;23.40;45.90;;;;;;5022873;28;20667;-66
2023/08/30 02:47:15;;;;;;;2.53;2.43;;;23.40;45.90;;;;;;5021390;28;20539;-68
2023/08/30 02:49:41;;;;;;;2.90;2.70;;;23.40;45.90;;;;;;5019097;28;20222;-65
2023/08/30 02:52:06;;;;;;;2.93;2.83;;;23.40;45.80;;;;;;5017724;28;20222;-65
2023/08/30 02:54:32;;;;;;;2.57;2.37;;;23.40;45.90;;;;;;5019485;28;20226;-65
2023/08/30 02:56:57;;;;;;;2.93;2.80;;;23.40;45.90;;;;;;5023960;28;20215;-65
2023/08/30 02:59:23;;;;;;;3.20;2.90;;;23.40;45.90;;;;;;5019968;28;20290;-68
2023/08/30 03:01:48;;;;;;;2.73;2.63;;;23.40;45.90;;;;;;5019511;28;20299;-65
2023/08/30 03:04:14;;;;;;;2.87;2.67;;;23.40;46.60;;;;;;5018857;28;20283;-66
2023/08/30 03:06:39;;;;;;;2.50;2.30;;;23.40;45.90;;;;;;5020256;28;20299;-64
2023/08/30 03:09:06;;;;;;;2.77;2.67;;;23.40;45.80;;;;;;5021071;28;20233;-65
2023/08/30 03:11:32;;;;;;;2.70;2.60;;;23.40;45.80;;;;;;5020901;28;20226;-66
2023/08/30 03:13:57;;;;;;;2.97;2.73;;;23.30;45.80;;;;;;5021972;28;20483;-66
2023/08/30 03:16:23;;;;;;;3.00;2.80;;;23.40;45.80;;;;;;5022353;28;20885;-66
2023/08/30 03:18:51;;;;;;;2.73;2.27;;;23.30;45.70;;;;;;5022315;28;20773;-66
2023/08/30 03:21:16;;;;;;;2.70;2.60;;;23.40;45.80;;;;;;5019283;28;20222;-64
2023/08/30 03:23:42;;;;;;;3.07;2.87;;;23.30;45.80;;;;;;5021712;28;20464;-70
2023/08/30 03:26:12;;;;;;;2.73;2.57;;;23.40;45.80;;;;;;5022602;28;20226;-64
2023/08/30 03:28:39;;;;;;;2.80;2.60;;;23.40;45.80;;;;;;5018206;28;20279;-69
2023/08/30 03:31:15;;;;;;;2.70;2.60;;;23.30;45.70;;;;;;5018785;28;20486;-66
2023/08/30 03:33:41;;;;;;;2.97;2.87;;;23.30;45.70;;;;;;5021774;28;20463;-67
2023/08/30 03:36:10;;;;;;;3.13;2.93;;;23.30;45.70;;;;;;5019004;28;20561;-65
2023/08/30 03:38:36;;;;;;;3.30;2.87;;;23.40;45.80;;;;;;5018507;28;20238;-68
2023/08/30 03:41:03;;;;;;;2.90;2.70;;;23.40;45.80;;;;;;5026320;28;20449;-65
2023/08/30 03:43:29;;;;;;;2.53;2.43;;;23.30;45.70;;;;;;5022052;28;20230;-66
2023/08/30 03:45:54;;;;;;;2.50;2.40;;;23.30;45.70;;;;;;5018104;28;20470;-65
2023/08/30 03:48:20;;;;;;;3.17;2.97;;;23.30;45.60;;;;;;5021681;28;20249;-65
2023/08/30 03:50:45;;;;;;;3.03;2.77;;;23.40;45.80;;;;;;5019252;28;20272;-69
2023/08/30 03:53:11;;;;;;;2.77;2.57;;;23.30;45.70;;;;;;5021698;28;20272;-66
2023/08/30 03:55:36;;;;;;;2.70;2.60;;;23.30;45.60;;;;;;5020485;28;20314;-65
2023/08/30 03:58:03;;;;;;;2.70;2.60;;;23.30;45.60;;;;;;5019312;28;20233;-65
2023/08/30 04:00:28;;;;;;;2.67;2.47;;;23.30;45.60;;;;;;5020084;28;20287;-69
2023/08/30 04:02:54;;;;;;;2.47;2.37;;;23.40;45.70;;;;;;5020447;28;20942;-64
2023/08/30 04:05:19;;;;;;;2.67;2.57;;;23.30;45.70;;;;;;5020388;28;20227;-66
2023/08/30 04:07:45;;;;;;;3.20;2.50;;;23.30;45.70;;;;;;5023793;28;20233;-66
2023/08/30 04:10:10;;;;;;;2.80;2.70;;;23.30;45.60;;;;;;5020441;28;20236;-75
2023/08/30 04:12:36;;;;;;;2.60;2.40;;;23.40;45.70;;;;;;5021606;28;20571;-70
2023/08/30 04:15:03;;;;;;;2.40;2.30;;;23.30;45.70;;;;;;5022014;28;20683;-68
2023/08/30 04:17:28;;;;;;;3.00;2.80;;;23.30;45.70;;;;;;5022679;28;20253;-68
2023/08/30 04:19:54;;;;;;;2.77;2.60;;;23.30;45.70;;;;;;5019966;28;20597;-66
2023/08/30 04:22:20;;;;;;;2.77;2.60;;;23.30;45.60;;;;;;5026320;28;20230;-66
2023/08/30 04:24:46;;;;;;;4.13;2.60;;;23.40;45.70;;;;;;5012500;28;20707;-68
2023/08/30 04:27:12;;;;;;;3.13;2.93;;;23.40;45.70;;;;;;5015638;28;20352;-66
2023/08/30 04:29:37;;;;;;;2.70;2.50;;;23.40;45.80;;;;;;5020783;28;20807;-66
2023/08/30 04:32:03;;;;;;;2.30;2.20;;;23.40;45.90;;;;;;5015127;28;20234;-64
2023/08/30 04:34:30;;;;;;;3.00;2.80;;;23.40;47.70;;;;;;5018364;28;20630;-68
2023/08/30 04:36:56;;;;;;;4.53;2.20;;;23.40;49.50;;;;;;5017175;28;20764;-73
2023/08/30 04:39:21;;;;;;;2.50;2.30;;;23.40;52.30;;;;;;5022399;28;20570;-64
2023/08/30 04:41:47;;;;;;;2.90;2.53;;;23.40;44.60;;;;;;5021227;28;20676;-64
2023/08/30 04:44:12;;;;;;;2.93;2.27;;;23.40;45.20;;;;;;5014984;28;20246;-67
2023/08/30 04:46:38;;;;;;;2.50;2.40;;;23.40;45.10;;;;;;5013358;28;20290;-69
2023/08/30 04:49:03;;;;;;;2.80;2.40;;;23.40;45.20;;;;;;5011489;28;20233;-66
2023/08/30 04:51:29;;;;;;;2.57;2.47;;;23.40;45.20;;;;;;5020856;28;20228;-65
2023/08/30 04:53:54;;;;;;;4.13;2.90;;;23.40;45.10;;;;;;5017336;28;21077;-67
2023/08/30 04:56:20;;;;;;;2.37;2.27;;;23.40;45.10;;;;;;5017454;28;20230;-65
2023/08/30 04:58:45;;;;;;;2.97;2.60;;;23.40;45.10;;;;;;5016115;28;20238;-68
2023/08/30 05:01:13;;;;;;;2.63;2.43;;;23.40;45.10;;;;;;5017175;28;20222;-68
2023/08/30 05:03:39;;;;;;;2.50;2.03;;;23.40;45.10;;;;;;5015413;28;20233;-70
2023/08/30 05:06:05;;;;;;;2.63;2.53;;;23.40;45.10;;;;;;5013104;28;20447;-66
2023/08/30 05:08:30;;;;;;;2.43;2.27;;;23.40;45.10;;;;;;5011466;28;21017;-66
2023/08/30 05:10:56;;;;;;;2.70;2.50;;;23.40;45.10;;;;;;5013725;28;20322;-65
2023/08/30 05:13:22;;;;;;;2.30;2.20;;;23.40;45.10;;;;;;5010680;28;20447;-72
2023/08/30 05:15:47;;;;;;;2.43;2.33;;;23.40;45.10;;;;;;5012752;28;20686;-66
2023/08/30 05:18:13;;;;;;;4.17;2.63;;;23.40;45.10;;;;;;5014238;28;20221;-65
2023/08/30 05:20:38;;;;;;;2.47;2.37;;;23.40;45.10;;;;;;5016688;28;21113;-71
2023/08/30 05:23:04;;;;;;;2.60;2.50;;;23.40;45.10;;;;;;5019569;28;20215;-71
2023/08/30 05:25:29;;;;;;;2.47;2.27;;;23.40;45.10;;;;;;5013877;28;20233;-67
2023/08/30 05:27:55;;;;;;;3.80;2.70;;;23.40;45.10;;;;;;5012078;28;20226;-70
2023/08/30 05:30:20;;;;;;;2.63;2.53;;;23.40;45.10;;;;;;5021545;28;20226;-71
2023/08/30 05:32:46;;;;;;;2.60;2.50;;;23.40;45.10;;;;;;5020856;28;20333;-67
2023/08/30 05:35:11;;;;;;;2.40;2.30;;;23.50;45.10;;;;;;5019107;28;20276;-65
2023/08/30 05:37:37;;;;;;;3.13;2.70;;;23.50;45.10;;;;;;5023623;28;20261;-65
2023/08/30 05:40:03;;;;;;;3.17;2.27;;;23.50;45.10;;;;;;5021467;28;20266;-66
2023/08/30 05:42:29;;;;;;;3.03;2.23;;;23.50;45.10;;;;;;5022620;28;20230;-66
2023/08/30 05:44:54;;;;;;;2.43;2.30;;;23.50;45.10;;;;;;5018512;28;20478;-71
2023/08/30 05:47:21;;;;;;;2.90;2.70;;;23.50;45.00;;;;;;5018685;28;20229;-67
2023/08/30 05:49:47;;;;;;;2.70;2.50;;;23.50;45.00;;;;;;5016078;28;20234;-68
2023/08/30 05:52:12;;;;;;;2.33;2.23;;;23.50;45.10;;;;;;5016297;28;20566;-65
2023/08/30 05:54:38;;;;;;;2.67;2.47;;;23.50;45.00;;;;;;5014219;28;20234;-74
2023/08/30 05:57:04;;;;;;;2.93;2.57;;;23.50;45.10;;;;;;5018895;28;20301;-73
2023/08/30 05:59:29;;;;;;;4.00;3.03;;;23.50;45.10;;;;;;5015098;28;20640;-68
2023/08/30 06:01:55;;;;;;;2.43;2.33;;;23.50;45.10;;;;;;5000507;28;20243;-70
2023/08/30 06:04:20;;;;;;;2.60;2.40;;;23.50;45.10;;;;;;5007369;28;20430;-68
2023/08/30 06:06:46;;;;;;;2.60;2.40;;;23.50;45.20;;;;;;5009434;28;20234;-66
2023/08/30 06:09:12;;;;;;;2.63;2.43;;;23.50;45.20;;;;;;5016311;28;20233;-70
2023/08/30 06:11:38;;;;;;;4.40;2.73;;;23.50;45.20;;;;;;5012210;28;22217;-66
2023/08/30 06:14:04;;;;;;;2.63;2.50;;;23.50;45.20;;;;;;5014142;28;21016;-70
2023/08/30 06:16:30;;;;;;;3.47;2.17;;;23.50;45.20;;;;;;5012072;28;20732;-69
2023/08/30 06:18:58;;;;;;;2.47;2.20;;;23.50;45.20;;;;;;5014416;28;20475;-66
2023/08/30 06:21:24;;;;;;;2.27;2.17;;;23.50;45.20;;;;;;5017078;28;20221;-69
2023/08/30 06:23:50;;;;;;;2.37;2.27;;;23.50;45.20;;;;;;5017489;28;20503;-68
2023/08/30 06:26:16;;;;;;;2.73;2.60;;;23.50;45.20;;;;;;5021913;28;20526;-69
2023/08/30 06:28:42;;;;;;;2.27;2.10;;;23.50;45.20;;;;;;5016856;28;20264;-71
2023/08/30 06:31:08;;;;;;;2.37;2.23;;;23.50;45.20;;;;;;5021027;28;20218;-67
2023/08/30 06:33:34;;;;;;;3.00;2.70;;;23.50;45.20;;;;;;5020749;28;22751;-68
2023/08/30 06:35:59;;;;;;;2.57;2.37;;;23.50;45.20;;;;;;5021417;28;20749;-67
2023/08/30 06:38:25;;;;;;;2.40;2.30;;;23.50;45.20;;;;;;5010396;28;20225;-67
2023/08/30 06:40:50;;;;;;;2.70;2.60;;;23.50;45.10;;;;;;5019049;28;20226;-66
2023/08/30 06:43:16;;;;;;;2.27;2.17;;;23.50;45.20;;;;;;5019924;28;20236;-67
2023/08/30 06:45:42;;;;;;;2.70;2.50;;;23.50;45.20;;;;;;5016262;28;21043;-67
2023/08/30 06:48:08;;;;;;;2.43;2.23;;;23.50;45.20;;;;;;5022554;28;20593;-66
2023/08/30 06:50:34;;;;;;;2.63;2.40;;;23.50;45.20;;;;;;5016813;28;20455;-74
2023/08/30 06:53:01;;;;;;;2.57;2.37;;;23.50;45.20;;;;;;5015262;28;20249;-71
2023/08/30 06:55:27;;;;;;;2.47;2.37;;;23.50;45.20;;;;;;5019243;28;20467;-66
2023/08/30 06:57:52;;;;;;;2.50;2.30;;;23.50;45.20;;;;;;5019628;28;20475;-66
2023/08/30 07:00:18;;;;;;;3.50;2.53;;;23.50;45.20;;;;;;5014856;28;20599;-71
2023/08/30 07:02:45;;;;;;;2.20;2.10;;;23.50;45.20;;;;;;5016737;28;21093;-68
2023/08/30 07:05:14;;;;;;;2.33;2.13;;;23.50;45.10;;;;;;5017449;28;20228;-65
2023/08/30 07:07:40;;;;;;;2.63;2.43;;;23.50;45.20;;;;;;5018464;28;20536;-67
2023/08/30 07:10:06;;;;;;;2.50;2.23;;;23.50;45.20;;;;;;5016058;28;20452;-67
2023/08/30 07:12:32;;;;;;;2.40;2.20;;;23.50;45.10;;;;;;5020385;28;20229;-66
2023/08/30 07:14:57;;;;;;;5.90;2.10;;;23.50;45.20;;;;;;5018581;28;20448;-67
2023/08/30 07:17:23;;;;;;;2.30;2.10;;;23.50;45.10;;;;;;5016198;28;20584;-68
2023/08/30 07:19:49;;;;;;;2.53;2.43;;;23.50;45.10;;;;;;5015960;28;20234;-66
2023/08/30 07:22:16;;;;;;;2.20;2.00;;;23.50;45.20;;;;;;5016080;28;20245;-70
2023/08/30 07:24:43;;;;;;;2.50;2.30;;;23.50;45.20;;;;;;5019763;28;20465;-68
2023/08/30 07:27:08;;;;;;;2.33;2.23;;;23.50;45.10;;;;;;5015320;28;21021;-68
2023/08/30 07:29:34;;;;;;;3.03;2.70;;;23.50;45.20;;;;;;5016849;28;21047;-68
2023/08/30 07:31:59;;;;;;;2.53;2.33;;;23.50;45.20;;;;;;5019622;28;20241;-69
2023/08/30 07:34:25;;;;;;;2.40;2.20;;;23.50;45.20;;;;;;5018093;28;20254;-67
2023/08/30 07:36:55;;;;;;;2.40;2.30;;;23.50;45.20;;;;;;5024077;28;21032;-66
2023/08/30 07:39:21;;;;;;;6.70;4.00;;;23.50;45.20;;;;;;5018972;28;20791;-66
2023/08/30 07:41:46;;;;;;;2.23;2.13;;;23.50;45.20;;;;;;5023059;28;20451;-66
2023/08/30 07:44:12;;;;;;;2.50;2.20;;;23.50;45.20;;;;;;5019776;28;20296;-65
2023/08/30 07:46:37;;;;;;;2.90;2.33;;;23.50;45.20;;;;;;5019535;28;20253;-65
2023/08/30 07:49:03;;;;;;;2.10;2.00;;;23.50;45.30;;;;;;5021280;28;20218;-71
2023/08/30 07:51:29;;;;;;;2.20;2.10;;;23.50;45.20;;;;;;5018884;28;20214;-68
2023/08/30 07:53:54;;;;;;;2.53;2.43;;;23.50;45.20;;;;;;5018346;28;20223;-67
2023/08/30 07:56:20;;;;;;;2.20;2.00;;;23.50;45.20;;;;;;5017015;28;20233;-70
2023/08/30 07:58:45;;;;;;;2.43;2.30;;;23.50;45.20;;;;;;5009291;28;21991;-71
2023/08/30 08:01:11;;;;;;;2.40;2.30;;;23.50;45.20;;;;;;5015731;28;20233;-71
2023/08/30 08:03:36;;;;;;;2.33;2.20;;;23.50;45.20;;;;;;5007328;28;20244;-69
2023/08/30 08:06:03;;;;;;;2.30;2.20;;;23.50;45.20;;;;;;5010218;28;20237;-70
2023/08/30 08:08:28;;;;;;;2.17;2.07;;;23.50;45.20;;;;;;5018074;28;20226;-69
2023/08/30 08:10:54;;;;;;;2.40;2.30;;;23.50;45.30;;;;;;5021137;28;20459;-66
2023/08/30 08:13:20;;;;;;;4.00;2.20;;;23.50;45.20;;;;;;5021656;28;20222;-69
2023/08/30 08:15:45;;;;;;;2.47;2.27;;;23.50;45.30;;;;;;5014623;28;21030;-70
2023/08/30 08:18:11;;;;;;;2.47;2.10;;;23.50;45.20;;;;;;5012104;28;20226;-71
2023/08/30 08:20:37;;;;;;;3.00;2.47;;;23.50;45.20;;;;;;5013222;28;20998;-68
2023/08/30 08:23:03;;;;;;;2.27;2.17;;;23.50;45.30;;;;;;5011095;28;20226;-67
2023/08/30 08:25:28;;;;;;;2.20;2.10;;;23.50;45.30;;;;;;5017691;28;20234;-71
2023/08/30 08:27:54;;;;;;;2.50;2.40;;;23.50;45.30;;;;;;5016331;28;21925;-70
2023/08/30 08:30:20;;;;;;;2.67;2.47;;;23.50;45.20;;;;;;5010584;28;20232;-67
2023/08/30 08:32:49;;;;;;;2.10;2.00;;;23.50;45.20;;;;;;5011002;28;20581;-69
2023/08/30 08:35:15;;;;;;;2.23;2.13;;;23.50;45.20;;;;;;5004013;28;21013;-70
2023/08/30 08:37:41;;;;;;;2.20;2.10;;;23.50;45.30;;;;;;5009238;28;20517;-65
2023/08/30 08:40:10;;;;;;;2.37;2.27;;;23.50;45.50;;;;;;5015283;28;20373;-71
2023/08/30 08:42:36;;;;;;;2.27;2.10;;;23.50;45.30;;;;;;5012035;28;20337;-69
2023/08/30 08:45:04;;;;;;;2.10;2.00;;;23.50;45.20;;;;;;5019769;28;20471;-64
2023/08/30 08:47:32;;;;;;;2.37;2.17;;;23.50;45.30;;;;;;5011989;28;20471;-65
2023/08/30 08:50:00;;;;;;;2.00;1.90;;;23.50;45.20;;;;;;5013705;28;21758;-68
2023/08/30 08:52:26;;;;;;;2.30;2.20;;;23.50;45.20;;;;;;5011769;28;20471;-64
2023/08/30 08:54:52;;;;;;;2.13;2.03;;;23.50;45.20;;;;;;5015956;28;21009;-66
2023/08/30 08:57:18;;;;;;;2.30;2.20;;;23.50;45.20;;;;;;5011178;28;20575;-70
2023/08/30 08:59:44;;;;;;;1.80;1.70;;;23.50;45.20;;;;;;5008603;28;20471;-66
2023/08/30 09:02:13;;;;;;;2.27;2.17;;;23.50;45.20;;;;;;5019364;28;20466;-72
2023/08/30 09:04:39;;;;;;;2.13;2.03;;;23.50;45.20;;;;;;5017327;28;20301;-66
2023/08/30 09:07:05;;;;;;;1.80;1.70;;;23.50;45.30;;;;;;5007481;28;21537;-70
2023/08/30 09:09:30;;;;;;;1.80;1.70;;;23.50;45.30;;;;;;5005621;28;20337;-69
2023/08/30 09:11:56;;;;;;;2.10;2.00;;;23.50;45.30;;;;;;5009598;28;20230;-68
2023/08/30 09:14:22;;;;;;;2.10;2.00;;;23.60;45.40;;;;;;5014737;28;20238;-70
2023/08/30 09:17:00;;;;;;;2.43;2.33;;;23.50;45.30;;;;;;5008934;28;20272;-69
2023/08/30 09:19:26;;;;;;;2.03;1.93;;;23.50;45.30;;;;;;5011447;28;20311;-69
2023/08/30 09:21:56;;;;;;;2.20;2.00;;;23.50;45.30;;;;;;5012494;28;20464;-70
2023/08/30 09:24:22;;;;;;;2.00;1.90;;;23.50;45.30;;;;;;5006251;28;21259;-68
2023/08/30 09:26:50;;;;;;;2.33;2.23;;;23.50;45.40;;;;;;5012499;28;20455;-67
2023/08/30 09:29:18;;;;;;;2.53;2.33;;;23.50;45.30;;;;;;5012412;28;20226;-69
2023/08/30 09:31:44;;;;;;;2.13;2.03;;;23.50;45.30;;;;;;5009024;28;20491;-71
2023/08/30 09:34:11;;;;;;;2.40;2.30;;;23.50;45.30;;;;;;5009754;28;20469;-70
2023/08/30 09:36:41;;;;;;;2.33;2.13;;;23.50;45.50;;;;;;5011394;28;20234;-68
2023/08/30 09:39:13;;;;;;;2.00;1.90;;;23.50;45.40;;;;;;5012528;28;20467;-67
2023/08/30 09:41:42;;;;;;;1.90;1.80;;;23.50;45.40;;;;;;5013655;28;20464;-69
2023/08/30 09:44:16;;;;;;;2.10;2.00;;;23.50;45.40;;;;;;5009820;28;20479;-70
2023/08/30 09:46:46;;;;;;;2.03;1.93;;;23.50;45.40;;;;;;5004446;28;20459;-71
2023/08/30 09:49:13;;;;;;;2.30;2.13;;;23.50;45.50;;;;;;5007114;28;21102;-66
2023/08/30 09:51:43;;;;;;;2.23;2.13;;;23.50;45.50;;;;;;5015147;28;20476;-65
2023/08/30 09:54:15;;;;;;;1.87;1.77;;;23.50;45.50;;;;;;5014266;28;20507;-66
2023/08/30 09:56:43;;;;;;;2.53;2.43;;;23.50;45.50;;;;;;5014860;28;20463;-70
2023/08/30 09:59:11;;;;;;;2.10;2.00;;;23.50;45.50;;;;;;5013524;28;20613;-67
2023/08/30 10:01:37;;;;;;;1.87;1.77;;;23.50;45.50;;;;;;5009277;28;20467;-68
2023/08/30 10:04:03;;;;;;;2.10;2.00;;;23.50;45.50;;;;;;5003337;28;20601;-71
2023/08/30 10:06:30;;;;;;;2.10;2.00;;;23.50;45.50;;;;;;5016745;28;20467;-72
2023/08/30 10:08:56;;;;;;;1.87;1.77;;;23.50;45.60;;;;;;5016936;28;21490;-67
2023/08/30 10:11:24;;;;;;;2.10;2.00;;;23.50;45.50;;;;;;5022882;28;20466;-66
2023/08/30 10:13:52;;;;;;;2.47;2.10;;;23.50;45.60;;;;;;5014808;28;20460;-66
2023/08/30 10:16:24;;;;;;;2.87;2.20;;;23.50;45.50;;;;;;5014840;28;20947;-67
2023/08/30 10:18:54;;;;;;;2.23;2.13;;;23.50;45.60;;;;;;5015118;28;21124;-67
2023/08/30 10:21:21;;;;;;;2.13;2.03;;;23.50;45.60;;;;;;5007740;28;20473;-71
2023/08/30 10:23:50;;;;;;;2.03;1.93;;;23.50;45.60;;;;;;5007940;28;20994;-70
2023/08/30 10:26:17;;;;;;;2.10;2.00;;;23.50;45.70;;;;;;5011952;28;20485;-71
2023/08/30 10:28:44;;;;;;;1.80;1.70;;;23.50;45.70;;;;;;5020749;28;20464;-68
2023/08/30 10:31:10;;;;;;;2.10;1.80;;;23.50;45.70;;;;;;5023397;28;20604;-70
2023/08/30 10:33:49;;;;;;;2.37;2.00;;;23.50;45.70;;;;;;5015879;28;20488;-71
2023/08/30 10:36:23;;;;;;;1.90;1.80;;;23.50;45.80;;;;;;5022352;28;20305;-68
2023/08/30 10:38:55;;;;;;;2.17;2.07;;;23.50;45.80;;;;;;5020975;28;20477;-67
2023/08/30 10:41:26;;;;;;;2.00;1.90;;;23.50;45.80;;;;;;5015457;28;20551;-68
2023/08/30 10:44:03;;;;;;;1.83;1.73;;;23.50;45.90;;;;;;5006208;28;21012;-70
2023/08/30 10:46:36;;;;;;;2.03;1.93;;;23.50;45.80;;;;;;5017004;28;20945;-69
2023/08/30 10:49:14;;;;;;;2.30;2.20;;;23.50;45.90;;;;;;5017172;28;20459;-68
2023/08/30 10:51:40;;;;;;;2.00;1.90;;;23.50;45.80;;;;;;5015522;28;20475;-70
2023/08/30 10:54:18;;;;;;;2.10;2.00;;;23.50;45.90;;;;;;5018499;28;20456;-72
2023/08/30 10:56:59;;;;;;;2.20;2.10;;;23.50;45.90;;;;;;5015083;28;20462;-75
2023/08/30 10:59:25;;;;;;;1.83;1.73;;;23.50;45.90;;;;;;5011705;28;20475;-71
2023/08/30 11:01:52;;;;;;;2.17;2.07;;;23.50;45.90;;;;;;5019280;28;20468;-69
2023/08/30 11:04:18;;;;;;;1.70;1.60;;;23.50;45.90;;;;;;5023207;28;20646;-72
2023/08/30 11:06:47;;;;;;;1.83;1.73;;;23.50;45.90;;;;;;5011914;28;20843;-73
2023/08/30 11:09:21;;;;;;;2.30;2.20;;;23.50;45.90;;;;;;5013220;28;20474;-69
2023/08/30 11:11:47;;;;;;;1.90;1.70;;;23.50;45.90;;;;;;5019694;28;20472;-67
2023/08/30 11:14:13;;;;;;;1.97;1.87;;;23.50;46.00;;;;;;5015571;28;21263;-73
2023/08/30 11:16:39;;;;;;;1.83;1.73;;;23.50;45.90;;;;;;5020306;28;20988;-71
2023/08/30 11:19:07;;;;;;;2.00;1.90;;;23.50;45.90;;;;;;5010834;28;20643;-73
2023/08/30 11:21:36;;;;;;;1.83;1.73;;;23.50;46.00;;;;;;5019035;28;20467;-69
2023/08/30 11:24:03;;;;;;;2.10;2.00;;;23.50;46.00;;;;;;5013973;28;20459;-72
2023/08/30 11:26:29;;;;;;;1.80;1.70;;;23.50;46.00;;;;;;5015322;28;20587;-70
2023/08/30 11:28:55;;;;;;;1.90;1.80;;;23.50;46.00;;;;;;5017922;28;20501;-69
2023/08/30 11:31:27;;;;;;;2.03;1.93;;;23.50;45.90;;;;;;5021237;28;20226;-70
2023/08/30 11:33:57;;;;;;;1.93;1.83;;;23.50;45.90;;;;;;5022037;28;20222;-70
2023/08/30 11:36:25;;;;;;;1.97;1.87;;;23.50;46.00;;;;;;5020823;28;20482;-73
2023/08/30 11:38:52;;;;;;;2.03;1.93;;;23.50;46.00;;;;;;5019260;28;20485;-69
2023/08/30 11:41:19;;;;;;;2.10;2.00;;;23.50;46.00;;;;;;5015351;28;20467;-71
2023/08/30 11:43:45;;;;;;;1.80;1.70;;;23.50;46.00;;;;;;5015824;28;20579;-70
2023/08/30 11:46:12;;;;;;;1.83;1.73;;;23.50;46.00;;;;;;5018628;28;20486;-68
2023/08/30 11:48:39;;;;;;;2.40;2.20;;;23.50;46.00;;;;;;5018802;28;20221;-72
2023/08/30 11:51:06;;;;;;;1.93;1.83;;;23.50;46.00;;;;;;5016764;28;20506;-69
2023/08/30 11:53:32;;;;;;;1.63;1.53;;;23.50;46.10;;;;;;5014030;28;20503;-74
2023/08/30 11:55:57;;;;;;;2.20;2.10;;;23.50;46.00;;;;;;5013043;28;20479;-69
2023/08/30 11:58:23;;;;;;;1.80;1.70;;;23.50;46.00;;;;;;5015915;28;20501;-70
2023/08/30 12:00:51;;;;;;;1.80;1.70;;;23.50;46.10;;;;;;5012564;28;20316;-74
2023/08/30 12:03:16;;;;;;;1.80;1.70;;;23.50;46.00;;;;;;5016206;28;20314;-69
2023/08/30 12:05:50;;;;;;;1.50;1.40;;;23.50;46.00;;;;;;5016613;28;20472;-68
2023/08/30 12:08:24;;;;;;;2.63;2.00;;;23.50;46.00;;;;;;5015892;28;20226;-70
2023/08/30 12:10:50;;;;;;;1.80;1.70;;;23.50;46.00;;;;;;5021032;28;20478;-75
2023/08/30 12:13:45;;;;;;;1.87;1.77;;;23.50;46.00;;;;;;5010860;28;20459;-70
2023/08/30 12:16:17;;;;;;;1.67;1.57;;;23.50;46.00;;;;;;5006412;28;20226;-68
2023/08/30 12:18:43;;;;;;;1.97;1.87;;;23.50;46.00;;;;;;5016741;28;20983;-67
2023/08/30 12:21:08;;;;;;;2.30;1.97;;;23.50;46.00;;;;;;5015001;28;20560;-70
2023/08/30 12:23:34;;;;;;;2.70;2.50;;;23.50;46.00;;;;;;5016620;28;20227;-70
2023/08/30 12:26:05;;;;;;;1.80;1.70;;;23.50;45.90;;;;;;5020087;28;20222;-70
2023/08/30 12:28:32;;;;;;;2.00;1.90;;;23.50;45.90;;;;;;5024979;28;21464;-68
2023/08/30 12:30:58;;;;;;;1.90;1.80;;;23.50;46.80;;;;;;5026196;28;20461;-69
2023/08/30 12:33:30;;;;;;;1.63;1.53;;;23.50;45.90;;;;;;5021428;28;20482;-70
2023/08/30 12:35:56;;;;;;;1.93;1.73;;;23.50;45.90;;;;;;5013858;28;20467;-72
2023/08/30 12:38:23;;;;;;;1.87;1.57;;;23.50;45.90;;;;;;5021052;28;20455;-66
2023/08/30 12:40:50;;;;;;;1.50;1.40;;;23.50;45.90;;;;;;5015010;28;20602;-73
2023/08/30 12:43:17;;;;;;;2.53;1.67;;;23.50;45.80;;;;;;5019740;28;20456;-66
2023/08/30 12:45:44;;;;;;;2.00;1.90;;;23.50;45.90;;;;;;5015279;28;20535;-70
2023/08/30 12:48:11;;;;;;;1.60;1.50;;;23.50;45.90;;;;;;5015994;28;20471;-66